Latest Coastal Weather Observations for Rosslyn Bay Harbour

IDQ60701

Issued at 5:25 pm EST Sunday 23 November 2014 (issued every 10 minutes, with the page automatically refreshed every 10 minutes)

About coastal observations | Map of coastal stations | Coastal observations for QLD | Marine services | Other Formats
Station Details ID: 033208 Name: ROSSLYN BAY NTC AWS Lat: -23.16 Lon: 150.79 Height: 0.0 m
Data from the previous 72 hours. | See also: Recent months for locations in Queensland
Date/Time
EST
Temp

°C
Wind Pressure Rain
since 9am
mm
Weather Cloud Vis
km
Sea
Height
m
Swell
Dir
 
Speed
knots
Gust
knots
hPa Trend Height
m
Period
s
Dir
23/05:00pm 26.6 E 3 10 1013.8 - - - - - - - - -
23/04:30pm 26.9 SE 3 10 1013.8 - - - - - - - - -
23/04:00pm 27.1 ESE 4 15 1014.0 - - - - - - - - -
23/03:30pm 27.2 E 4 15 1014.2 - - - - - - - - -
23/03:00pm 26.9 SE 3 11 1014.2 - - - - - - - - -
23/02:30pm 27.1 E 3 11 1014.6 - - - - - - - - -
23/02:00pm 27.3 E 5 12 1014.8 - - - - - - - - -
23/01:30pm 27.6 ENE 4 11 1015.0 - - - - - - - - -
23/01:00pm 27.2 ENE 7 13 1015.5 - - - - - - - - -
23/12:30pm 27.1 ENE 5 12 1015.7 - - - - - - - - -
23/12:00pm 27.0 ENE 6 14 1016.2 - - - - - - - - -
23/11:30am 26.9 ENE 6 13 1016.5 - - - - - - - - -
23/11:00am 27.3 ENE 5 13 1016.9 - - - - - - - - -
23/10:30am 26.9 ENE 7 13 1017.1 - - - - - - - - -
23/10:00am 26.7 ENE 7 14 1017.2 - - - - - - - - -
23/09:30am 26.6 ENE 8 12 1017.2 - - - - - - - - -
23/09:00am 26.9 ENE 7 12 1017.2 - - - - - - - - -
23/08:30am 26.6 ENE 6 12 1017.0 - - - - - - - - -
23/08:00am 26.0 ENE 9 12 1016.9 - - - - - - - - -
23/07:30am 25.8 NNE 6 8 1016.7 - - - - - - - - -
23/07:00am 25.8 NE 7 10 1016.5 - - - - - - - - -
23/06:30am 25.8 ENE 8 13 1015.8 - - - - - - - - -
23/06:00am 25.5 ENE 9 12 1015.6 - - - - - - - - -
23/05:30am 25.6 NE 7 10 1015.2 - - - - - - - - -
23/05:00am 25.5 NE 7 12 1014.8 - - - - - - - - -
23/04:30am 25.7 NNE 8 12 1014.5 - - - - - - - - -
23/04:00am 25.7 NNE 7 12 1014.3 - - - - - - - - -
23/03:30am 25.7 NNE 9 12 1014.2 - - - - - - - - -
23/03:00am 25.7 NE 9 14 1014.3 - - - - - - - - -
23/02:30am 25.6 NE 8 12 1014.4 - - - - - - - - -
23/02:00am 25.8 NE 12 14 1014.3 - - - - - - - - -
23/01:30am 25.8 ENE 9 15 1014.2 - - - - - - - - -
23/01:00am 25.8 NE 11 15 1014.4 - - - - - - - - -
23/12:30am 26.0 NNE 9 14 1014.6 - - - - - - - - -
23/12:00am 26.0 NNE 9 14 1015.0 - - - - - - - - -
 
Date/Time
EST
Temp

°C
Wind Pressure Rain
since 9am
mm
Weather Cloud Vis
km
Sea
Height
m
Swell
Dir
 
Speed
knots
Gust
knots
hPa Trend Height
m
Period
s
Dir
22/11:30pm 25.9 NE 10 14 1015.3 - - - - - - - - -
22/11:00pm 26.1 NNE 10 14 1015.1 - - - - - - - - -
22/10:30pm 26.1 NNE 11 15 1015.2 - - - - - - - - -
22/10:00pm 26.2 NNE 10 15 1015.1 - - - - - - - - -
22/09:30pm 26.3 NNE 12 17 1014.9 - - - - - - - - -
22/09:00pm 26.4 NNE 11 15 1014.8 - - - - - - - - -
22/08:30pm 26.4 NNE 11 16 1014.5 - - - - - - - - -
22/08:00pm 26.4 NNE 11 15 1014.2 - - - - - - - - -
22/07:30pm 26.4 NNE 11 15 1013.9 - - - - - - - - -
22/07:00pm 26.6 NNE 11 16 1013.5 - - - - - - - - -
22/06:30pm 26.5 NNE 10 16 1013.3 - - - - - - - - -
22/06:00pm 26.6 NE 13 17 1013.1 - - - - - - - - -
22/05:30pm 26.5 NE 14 18 1012.6 - - - - - - - - -
22/05:00pm 26.7 NE 13 17 1012.2 - - - - - - - - -
22/04:30pm 26.6 NE 14 18 1012.1 - - - - - - - - -
22/04:00pm 26.6 NE 14 17 1012.0 - - - - - - - - -
22/03:30pm 26.4 ENE 15 20 1012.0 - - - - - - - - -
22/03:00pm 26.5 NE 16 19 1012.4 - - - - - - - - -
22/02:30pm 26.4 NE 15 18 1012.6 - - - - - - - - -
22/02:00pm 26.6 NE 12 16 1013.0 - - - - - - - - -
22/01:30pm 26.5 NE 14 17 1013.4 - - - - - - - - -
22/01:00pm 26.7 NE 13 16 1013.7 - - - - - - - - -
22/12:30pm 26.6 NE 12 15 1014.2 - - - - - - - - -
22/12:00pm 27.2 ENE 10 15 1014.6 - - - - - - - - -
22/11:30am 26.8 ENE 10 13 1014.8 - - - - - - - - -
22/11:00am 26.3 NE 11 13 1015.1 - - - - - - - - -
22/10:30am 26.4 NE 11 13 1015.4 - - - - - - - - -
22/10:00am 26.2 NE 10 12 1015.7 - - - - - - - - -
22/09:30am 26.1 NE 10 12 1015.9 - - - - - - - - -
22/09:00am 26.0 NE 8 10 1015.9 - - - - - - - - -
22/08:30am 26.3 NNE 4 7 1015.9 - - - - - - - - -
22/08:00am 26.0 NNE 5 7 1016.0 - - - - - - - - -
22/07:30am 25.9 N 4 5 1016.0 - - - - - - - - -
22/07:00am 25.4 NNW 3 4 1015.8 - - - - - - - - -
22/06:30am 25.0 NW 2 4 1015.6 - - - - - - - - -
22/06:00am 25.0 NNW 3 4 1014.9 - - - - - - - - -
22/05:30am 24.8 NNW 5 6 1014.3 - - - - - - - - -
22/05:00am 24.6 N 5 6 1013.8 - - - - - - - - -
22/04:30am 24.4 N 4 6 1013.5 - - - - - - - - -
22/04:00am 24.8 N 5 8 1013.2 - - - - - - - - -
22/03:30am 24.7 N 5 7 1012.8 - - - - - - - - -
22/03:00am 24.7 N 5 7 1012.7 - - - - - - - - -
22/02:30am 24.9 N 5 7 1012.8 - - - - - - - - -
22/02:00am 25.2 N 6 9 1012.9 - - - - - - - - -
22/01:30am 25.4 N 5 8 1013.1 - - - - - - - - -
22/01:00am 25.3 N 6 8 1013.4 - - - - - - - - -
22/12:30am 25.7 N 9 13 1013.7 - - - - - - - - -
22/12:00am 25.8 NNE 11 15 1013.9 - - - - - - - - -
 
Date/Time
EST
Temp

°C
Wind Pressure Rain
since 9am
mm
Weather Cloud Vis
km
Sea
Height
m
Swell
Dir
 
Speed
knots
Gust
knots
hPa Trend Height
m
Period
s
Dir
21/11:30pm 26.0 NNE 11 14 1014.1 - - - - - - - - -
21/11:00pm 25.9 NNE 11 15 1014.3 - - - - - - - - -
21/10:30pm 25.9 NNE 12 15 1014.2 - - - - - - - - -
21/10:00pm 26.0 NNE 12 16 1014.3 - - - - - - - - -
21/09:30pm 26.1 NNE 12 16 1014.1 - - - - - - - - -
21/09:00pm 26.0 NNE 13 17 1013.9 - - - - - - - - -
21/08:30pm 26.1 NNE 14 18 1013.5 - - - - - - - - -
21/08:00pm 26.0 NNE 14 19 1013.2 - - - - - - - - -
21/07:30pm 26.1 NNE 13 19 1013.1 - - - - - - - - -
21/07:00pm 26.1 NNE 14 19 1012.8 - - - - - - - - -
21/06:30pm 26.3 NNE 12 18 1012.7 - - - - - - - - -
21/06:00pm 26.3 NE 14 20 1012.3 - - - - - - - - -
21/05:30pm 26.4 NE 15 21 1012.1 - - - - - - - - -
21/05:00pm 26.4 NE 14 20 1011.9 - - - - - - - - -
21/04:30pm 26.3 NE 17 21 1011.8 - - - - - - - - -
21/04:00pm 26.4 NE 16 21 1011.8 - - - - - - - - -
21/03:30pm 26.2 NE 16 20 1011.8 - - - - - - - - -
21/03:00pm 26.3 NE 16 19 1012.0 - - - - - - - - -
21/02:30pm 26.3 ENE 15 17 1012.3 - - - - - - - - -
21/02:00pm 26.3 ENE 15 19 1012.7 - - - - - - - - -
21/01:30pm 26.2 NE 14 18 1013.0 - - - - - - - - -
21/01:00pm 26.1 NE 14 17 1013.5 - - - - - - - - -
21/12:30pm 26.1 NE 13 16 1014.0 - - - - - - - - -
21/12:00pm 26.0 NE 13 16 1014.5 - - - - - - - - -
21/11:30am 26.2 ENE 12 14 1014.9 - - - - - - - - -
21/11:00am 26.1 NE 13 15 1015.2 - - - - - - - - -
21/10:30am 26.1 NE 11 13 1015.8 - - - - - - - - -
21/10:00am 26.1 NE 10 13 1016.1 - - - - - - - - -
21/09:30am 25.8 NE 9 11 1016.2 - - - - - - - - -
21/09:00am 26.1 NE 6 10 1016.3 - - - - - - - - -
21/08:30am 25.9 NNE 5 7 1016.4 - - - - - - - - -
21/08:00am 25.5 N 5 7 1016.5 - - - - - - - - -
21/07:30am 25.4 N 5 7 1016.2 - - - - - - - - -
21/07:00am 24.9 NW 5 7 1015.9 - - - - - - - - -
21/06:30am 25.4 N 5 8 1015.5 - - - - - - - - -
21/06:00am 25.1 N 3 5 1015.1 - - - - - - - - -
21/05:30am 24.9 N 4 6 1014.9 - - - - - - - - -
21/05:00am 24.9 N 7 13 1014.6 - - - - - - - - -
21/04:30am 25.5 NNE 9 12 1014.3 - - - - - - - - -
21/04:00am 25.3 N 7 12 1014.0 - - - - - - - - -
21/03:30am 25.0 N 4 8 1013.9 - - - - - - - - -
21/03:00am 24.9 N 6 8 1013.7 - - - - - - - - -
21/02:30am 24.9 N 6 8 1013.8 - - - - - - - - -
21/02:00am 25.6 NNE 11 15 1013.9 - - - - - - - - -
21/01:30am 25.7 NNE 10 14 1014.2 - - - - - - - - -
21/01:00am 25.7 NNE 11 17 1014.4 - - - - - - - - -
21/12:30am 25.7 NNE 12 17 1014.4 - - - - - - - - -
21/12:00am 25.8 NNE 12 16 1014.7 - - - - - - - - -
 
Date/Time
EST
Temp

°C
Wind Pressure Rain
since 9am
mm
Weather Cloud Vis
km
Sea
Height
m
Swell
Dir
 
Speed
knots
Gust
knots
hPa Trend Height
m
Period
s
Dir
20/11:30pm 25.9 NNE 10 15 1015.3 - - - - - - - - -
20/11:00pm 26.1 NNE 12 15 1015.8 - - - - - - - - -
20/10:30pm 26.1 NNE 11 15 1016.0 - - - - - - - - -
20/10:00pm 26.2 NNE 8 11 1016.1 - - - - - - - - -
20/09:30pm 26.1 NNE 8 11 1016.0 - - - - - - - - -
20/09:00pm 26.1 NE 8 12 1015.8 - - - - - - - - -
20/08:30pm 26.2 NE 11 14 1015.5 - - - - - - - - -
20/08:00pm 26.2 NE 12 15 1015.2 - - - - - - - - -
20/07:30pm 26.2 NE 12 15 1014.9 - - - - - - - - -
20/07:00pm 26.1 NE 11 16 1014.4 - - - - - - - - -
20/06:30pm 26.2 NE 12 17 1014.1 - - - - - - - - -
20/06:00pm 26.2 NE 12 17 1013.6 - - - - - - - - -
20/05:30pm 26.3 NE 13 17 1013.4 - - - - - - - - -

Other Formats:

Comma delimited format used in spreadsheet applications
http://www.bom.gov.au/fwo/IDQ60701/IDQ60701.95298.axf

JavaScript Object Notation format (JSON) in row-major order
http://www.bom.gov.au/fwo/IDQ60701/IDQ60701.95298.json